createdAt,value
2023-05-23T21:04:09.004Z,59.15
2023-05-23T21:06:35.847Z,57.60
2023-05-23T21:09:02.541Z,55.45
2023-05-23T21:11:29.096Z,70.38
2023-05-23T21:13:56.316Z,53.70
2023-05-23T21:16:22.876Z,53.03
2023-05-23T21:18:49.426Z,62.65
2023-05-23T21:21:16.029Z,78.88
2023-05-23T21:23:42.646Z,70.40
2023-05-23T21:26:09.166Z,60.27
2023-05-23T21:28:36.492Z,62.95
2023-05-23T21:31:03.605Z,56.72
2023-05-23T21:33:30.257Z,64.68
2023-05-23T21:35:58.105Z,67.53
2023-05-23T21:38:26.508Z,70.03
2023-05-23T21:40:52.997Z,64.75
2023-05-23T21:43:19.536Z,64.75
2023-05-23T21:45:46.029Z,58.58
2023-05-23T21:48:12.566Z,53.95
2023-05-23T21:50:39.234Z,56.03
2023-05-23T21:53:05.844Z,57.35
2023-05-23T21:55:32.347Z,63.50
2023-05-23T21:57:58.987Z,50.75
2023-05-23T22:00:25.502Z,47.17
2023-05-23T22:02:52.524Z,44.73
2023-05-23T22:05:19.142Z,92.45
2023-05-23T22:07:45.662Z,41.60
2023-05-23T22:10:12.164Z,35.60
2023-05-23T22:12:38.770Z,32.47
2023-05-23T22:15:06.678Z,28.80
2023-05-23T22:17:33.176Z,34.90
2023-05-23T22:20:00.660Z,30.02
2023-05-23T22:22:27.198Z,27.88
2023-05-23T22:24:53.759Z,30.15
2023-05-23T22:27:20.349Z,28.10
2023-05-23T22:29:46.900Z,25.88
2023-05-23T22:32:13.410Z,25.05
2023-05-23T22:34:40.931Z,25.10
2023-05-23T22:37:07.426Z,23.92
2023-05-23T22:39:33.961Z,20.13
2023-05-23T22:42:00.545Z,21.23
2023-05-23T22:44:27.064Z,17.95
2023-05-23T22:46:53.689Z,19.98
2023-05-23T22:49:20.292Z,18.10
2023-05-23T22:51:46.889Z,23.83
2023-05-23T22:54:13.521Z,22.30
2023-05-23T22:56:40.068Z,26.45
2023-05-23T22:59:06.611Z,25.67
2023-05-23T23:01:33.261Z,31.88
2023-05-23T23:04:00.174Z,24.77
2023-05-23T23:06:26.752Z,27.20
2023-05-23T23:08:53.261Z,35.65
2023-05-23T23:11:20.089Z,24.63
2023-05-23T23:13:46.771Z,37.22
2023-05-23T23:16:13.328Z,35.57
2023-05-23T23:18:39.914Z,29.05
2023-05-23T23:21:06.430Z,19.20
2023-05-23T23:23:32.911Z,23.58
2023-05-23T23:25:59.573Z,30.58
2023-05-23T23:28:26.113Z,23.17
2023-05-23T23:30:52.675Z,20.17
2023-05-23T23:33:19.223Z,18.40
2023-05-23T23:35:45.748Z,16.77
2023-05-23T23:38:12.271Z,16.33
2023-05-23T23:40:39.026Z,15.73
2023-05-23T23:43:05.548Z,15.65
2023-05-23T23:45:32.046Z,14.68
2023-05-23T23:47:59.049Z,15.05
2023-05-23T23:50:25.556Z,13.73
2023-05-23T23:52:52.245Z,12.90
2023-05-23T23:55:18.788Z,15.95
2023-05-23T23:57:45.440Z,12.93
